Casa Blanca, New Mexico
Current Conditions -  °F | °C
As of 5:16 PM on Monday 20 Oct 2014 (Local Time) from KGNT Reporting Station
Broken Clouds Broken Clouds  
Wind Chill: 66°   Ceiling: 6000
Heat Index: 66°   Visibility: 10mi
Dew Point: 37°   Wind: 13mph
Humidity: 35%   Direction: 140°SE
Pressure: 30.17"   Gusts: 16mph
Location:  35.04°N, 107.47°W
Report Text: KGNT 202316Z AUTO 14011G14KT 10SM BKN060 19/03 A3017 RMK AO2
Loading
Personal Weather Stations






























Interactive Weather Map
Tropical Storm Tracking
New forecast layout! Learn more

10-Day Weather Forecast

Advertisements
Track Severe Weather on mobile